createdAt,value
2019-03-22T00:01:23.716Z,81.74
2019-03-22T00:03:53.343Z,81.56
2019-03-22T00:06:23.039Z,81.07
2019-03-22T00:08:52.877Z,81.07
2019-03-22T00:11:22.458Z,80.88
2019-03-22T00:13:52.246Z,80.88
2019-03-22T00:16:21.893Z,81.10
2019-03-22T00:18:51.541Z,81.36
2019-03-22T00:21:21.097Z,81.36
2019-03-22T00:23:50.940Z,81.73
2019-03-22T00:26:21.050Z,81.54
2019-03-22T00:28:50.899Z,82.28
2019-03-22T00:31:20.735Z,82.34
2019-03-22T00:33:50.349Z,82.15
2019-03-22T00:36:20.135Z,82.15
2019-03-22T00:38:49.808Z,82.25
2019-03-22T00:41:19.685Z,83.66
2019-03-22T00:43:49.512Z,83.26
2019-03-22T00:46:19.141Z,83.26
2019-03-22T00:48:49.059Z,83.17
2019-03-22T00:51:19.132Z,83.04
2019-03-22T00:53:49.015Z,82.63
2019-03-22T00:56:18.654Z,82.64
2019-03-22T00:58:48.410Z,82.64
2019-03-22T01:01:18.169Z,82.61
2019-03-22T01:03:47.803Z,82.65
2019-03-22T01:06:17.686Z,82.38
2019-03-22T01:08:47.601Z,82.38
2019-03-22T01:11:17.172Z,82.58
2019-03-22T01:13:47.125Z,82.62
2019-03-22T01:16:17.206Z,82.70
2019-03-22T01:18:47.036Z,82.27
2019-03-22T01:21:16.845Z,83.62
2019-03-22T01:23:46.474Z,83.58
2019-03-22T01:26:16.171Z,83.45
2019-03-22T01:28:45.805Z,83.27
2019-03-22T01:31:15.533Z,83.27
2019-03-22T01:33:45.262Z,83.35
2019-03-22T01:36:15.259Z,83.17
2019-03-22T01:38:45.091Z,84.26
2019-03-22T01:41:14.819Z,84.26
2019-03-22T01:43:44.709Z,84.00
2019-03-22T01:46:14.368Z,84.00
2019-03-22T01:48:43.982Z,83.58
2019-03-22T01:51:13.757Z,84.32
2019-03-22T01:53:44.011Z,83.73
2019-03-22T01:56:13.819Z,83.73
2019-03-22T01:58:43.415Z,83.85
2019-03-22T02:01:13.258Z,83.85
2019-03-22T02:03:43.288Z,83.93
2019-03-22T02:06:12.940Z,84.12
2019-03-22T02:08:42.696Z,84.29
2019-03-22T02:11:12.386Z,84.29
2019-03-22T02:13:42.326Z,84.95
2019-03-22T02:16:12.314Z,85.54
2019-03-22T02:18:41.979Z,85.31
2019-03-22T02:21:12.102Z,85.37
2019-03-22T02:23:42.597Z,85.74
2019-03-22T02:26:12.365Z,85.93
2019-03-22T02:28:42.256Z,85.67
2019-03-22T02:31:11.901Z,85.70
2019-03-22T02:33:41.690Z,85.70
2019-03-22T02:36:11.455Z,85.48
2019-03-22T02:38:41.116Z,85.51
2019-03-22T02:41:10.866Z,85.99
2019-03-22T02:43:40.664Z,86.23
2019-03-22T02:46:10.305Z,87.35
2019-03-22T02:48:40.188Z,87.35
2019-03-22T02:51:10.260Z,88.07
2019-03-22T02:53:39.917Z,87.89
2019-03-22T02:56:10.254Z,87.90
2019-03-22T02:58:40.010Z,88.22
2019-03-22T03:01:09.969Z,88.02
2019-03-22T03:03:39.564Z,88.47
2019-03-22T03:06:09.385Z,87.51
2019-03-22T03:08:39.744Z,87.06
2019-03-22T03:11:09.360Z,87.22
2019-03-22T03:13:39.115Z,87.06
2019-03-22T03:16:09.300Z,87.18
2019-03-22T03:18:38.977Z,87.58
2019-03-22T03:21:08.755Z,87.82
2019-03-22T03:23:38.384Z,88.13
2019-03-22T03:26:08.217Z,88.68
2019-03-22T03:28:37.897Z,88.90
2019-03-22T03:31:07.580Z,88.13
2019-03-22T03:33:37.198Z,88.02
2019-03-22T03:36:07.004Z,87.81
2019-03-22T03:38:36.657Z,88.17
2019-03-22T03:41:06.828Z,88.29
2019-03-22T03:43:36.432Z,87.72
2019-03-22T03:46:06.027Z,87.81
2019-03-22T03:48:36.010Z,87.79
2019-03-22T03:51:06.063Z,87.50
2019-03-22T03:53:35.839Z,87.54
2019-03-22T03:56:05.790Z,87.86
2019-03-22T03:58:51.171Z,88.09
2019-03-22T04:01:07.305Z,87.90
2019-03-22T04:03:37.126Z,88.04
2019-03-22T04:06:06.749Z,87.95
2019-03-22T04:08:36.523Z,87.95
2019-03-22T04:11:06.213Z,88.68
2019-03-22T04:13:35.808Z,89.31
2019-03-22T04:16:06.072Z,89.19
2019-03-22T04:18:36.251Z,89.09
2019-03-22T04:21:06.436Z,88.97
2019-03-22T04:23:36.036Z,88.33
2019-03-22T04:26:05.854Z,88.37
2019-03-22T04:28:35.607Z,88.40
2019-03-22T04:31:05.346Z,88.99
2019-03-22T04:33:34.961Z,88.89
2019-03-22T04:36:04.920Z,88.52
2019-03-22T04:38:34.509Z,89.03
2019-03-22T04:41:04.201Z,88.83
2019-03-22T04:43:33.908Z,89.07
2019-03-22T04:46:03.844Z,89.10
2019-03-22T04:48:34.840Z,88.78
2019-03-22T04:51:05.421Z,88.72
2019-03-22T04:53:41.222Z,89.41
2019-03-22T04:56:13.432Z,89.88
2019-03-22T04:58:46.737Z,89.41
2019-03-22T05:01:16.058Z,89.85
2019-03-22T05:03:46.627Z,89.37
2019-03-22T05:06:17.867Z,89.01
2019-03-22T05:08:48.399Z,88.83
2019-03-22T05:11:18.603Z,88.42
2019-03-22T05:13:48.756Z,88.06
2019-03-22T05:16:19.855Z,88.21
2019-03-22T05:18:50.693Z,88.44
2019-03-22T05:21:21.825Z,88.41
2019-03-22T05:23:53.340Z,88.97
2019-03-22T05:26:24.287Z,89.09
2019-03-22T05:28:54.059Z,88.76
2019-03-22T05:31:48.217Z,89.08
2019-03-22T05:34:17.826Z,88.56
2019-03-22T05:36:47.547Z,88.85
2019-03-22T05:39:17.215Z,87.95
2019-03-22T05:41:46.832Z,87.88
2019-03-22T05:44:16.456Z,87.89
2019-03-22T05:46:48.854Z,86.62
2019-03-22T05:49:17.617Z,86.62
2019-03-22T05:51:47.236Z,86.60
2019-03-22T05:54:16.907Z,86.18
2019-03-22T05:56:46.639Z,85.11
2019-03-22T05:59:16.336Z,85.11
2019-03-22T06:01:46.035Z,84.84
2019-03-22T06:04:15.830Z,84.28
2019-03-22T06:06:45.443Z,83.99
2019-03-22T06:09:15.278Z,83.70
2019-03-22T06:11:45.005Z,83.32
2019-03-22T06:14:14.840Z,82.52
2019-03-22T06:16:44.437Z,82.52
2019-03-22T06:19:14.270Z,82.41
2019-03-22T06:21:44.122Z,82.41
2019-03-22T06:24:13.982Z,81.20
2019-03-22T06:26:43.721Z,81.20
2019-03-22T06:29:13.514Z,80.22
2019-03-22T06:31:43.520Z,80.22
2019-03-22T06:34:13.350Z,79.65
2019-03-22T06:36:42.959Z,78.21
2019-03-22T06:39:12.755Z,78.68
2019-03-22T06:41:42.801Z,78.79
2019-03-22T06:44:12.616Z,78.79
2019-03-22T06:46:42.524Z,78.38
2019-03-22T06:49:12.132Z,78.95
2019-03-22T06:51:41.879Z,78.63
2019-03-22T06:54:11.470Z,76.60
2019-03-22T06:56:41.173Z,75.01
2019-03-22T06:59:10.834Z,75.01
2019-03-22T07:01:40.581Z,73.81
2019-03-22T07:04:10.368Z,74.33
2019-03-22T07:06:40.016Z,73.37
2019-03-22T07:09:10.420Z,72.34
2019-03-22T07:11:41.986Z,71.65
2019-03-22T07:14:11.827Z,70.33
2019-03-22T07:16:41.445Z,68.98
2019-03-22T07:19:11.323Z,67.71
2019-03-22T07:21:41.037Z,66.57
2019-03-22T07:24:10.951Z,65.24
2019-03-22T07:26:41.234Z,66.74
2019-03-22T07:29:11.054Z,65.39
2019-03-22T07:31:41.050Z,64.40
2019-03-22T07:34:10.768Z,63.50
2019-03-22T07:36:40.433Z,61.18
2019-03-22T07:39:10.489Z,59.79
2019-03-22T07:41:40.293Z,59.00
2019-03-22T07:44:10.124Z,57.22
2019-03-22T07:46:39.791Z,56.80
2019-03-22T07:49:09.854Z,55.59
2019-03-22T07:51:39.653Z,55.85
2019-03-22T07:54:09.286Z,53.69
2019-03-22T07:56:39.676Z,52.80
2019-03-22T07:59:10.051Z,52.73
2019-03-22T08:01:39.707Z,52.41
2019-03-22T08:04:09.349Z,53.42
2019-03-22T08:06:39.089Z,52.49
2019-03-22T08:09:12.340Z,52.78
2019-03-22T08:11:42.364Z,53.46
2019-03-22T08:14:12.004Z,53.79
2019-03-22T08:16:41.619Z,53.51
2019-03-22T08:19:11.264Z,52.82
2019-03-22T08:21:41.028Z,51.83
2019-03-22T08:24:10.907Z,50.14
2019-03-22T08:26:40.509Z,49.27
2019-03-22T08:29:10.194Z,48.75
2019-03-22T08:31:39.966Z,46.60
2019-03-22T08:34:09.803Z,46.05
2019-03-22T08:36:39.713Z,45.06
2019-03-22T08:39:10.728Z,45.19
2019-03-22T08:41:40.354Z,41.93
2019-03-22T08:44:10.416Z,40.69
2019-03-22T08:46:40.149Z,40.44
2019-03-22T08:49:10.099Z,40.44
2019-03-22T08:51:39.749Z,39.66
2019-03-22T08:54:09.609Z,39.92
2019-03-22T08:56:39.965Z,40.31
2019-03-22T08:59:09.859Z,39.86
2019-03-22T09:01:39.798Z,39.97
2019-03-22T09:04:09.426Z,38.07
2019-03-22T09:06:39.704Z,39.28
2019-03-22T09:09:09.629Z,38.67
2019-03-22T09:11:39.553Z,39.32
2019-03-22T09:14:09.251Z,39.24
2019-03-22T09:16:39.523Z,39.43
2019-03-22T09:19:09.298Z,38.48
2019-03-22T09:21:39.040Z,37.64
2019-03-22T09:24:09.206Z,38.20
2019-03-22T09:26:47.598Z,38.00
2019-03-22T09:29:10.658Z,37.86
2019-03-22T09:31:40.956Z,37.99
2019-03-22T09:34:10.540Z,38.57
2019-03-22T09:36:40.399Z,38.33
2019-03-22T09:39:10.071Z,37.82
2019-03-22T09:41:39.961Z,37.79
2019-03-22T09:44:09.631Z,37.04
2019-03-22T09:46:39.786Z,37.19
2019-03-22T09:49:09.375Z,35.94
2019-03-22T09:51:39.413Z,36.70
2019-03-22T09:54:09.577Z,35.92
2019-03-22T09:56:47.074Z,36.71
2019-03-22T09:59:11.127Z,36.04
2019-03-22T10:01:40.815Z,37.28
2019-03-22T10:04:10.643Z,39.82
2019-03-22T10:06:40.638Z,39.73
2019-03-22T10:09:10.428Z,40.69
2019-03-22T10:11:40.185Z,39.42
2019-03-22T10:14:10.070Z,39.62
2019-03-22T10:16:39.695Z,39.31
2019-03-22T10:19:09.597Z,39.34
2019-03-22T10:21:39.346Z,39.88
2019-03-22T10:24:09.144Z,39.91
2019-03-22T10:26:38.979Z,37.88
2019-03-22T10:29:08.606Z,39.46
2019-03-22T10:31:38.859Z,39.83
2019-03-22T10:34:08.456Z,40.04
2019-03-22T10:36:39.463Z,39.91
2019-03-22T10:39:11.232Z,40.29
2019-03-22T10:41:41.406Z,40.42
2019-03-22T10:44:11.547Z,39.56
2019-03-22T10:46:41.149Z,40.59
2019-03-22T10:49:11.137Z,40.84
2019-03-22T10:51:40.756Z,40.11
2019-03-22T10:54:10.451Z,39.88
2019-03-22T10:56:40.225Z,39.40
2019-03-22T10:59:10.075Z,38.84
2019-03-22T11:01:48.548Z,38.51
2019-03-22T11:04:11.365Z,38.45
2019-03-22T11:06:42.309Z,39.07
2019-03-22T11:09:11.948Z,38.78
2019-03-22T11:11:41.740Z,38.48
2019-03-22T11:14:11.851Z,38.53
2019-03-22T11:16:42.145Z,38.12
2019-03-22T11:19:12.253Z,38.02
2019-03-22T11:21:42.031Z,38.38
2019-03-22T11:24:11.989Z,39.14
2019-03-22T11:26:41.917Z,36.78
2019-03-22T11:29:12.065Z,37.68
2019-03-22T11:31:41.882Z,36.44
2019-03-22T11:34:11.870Z,37.02
2019-03-22T11:36:41.824Z,37.29
2019-03-22T11:39:15.831Z,36.43
2019-03-22T11:41:44.084Z,35.59
2019-03-22T11:44:13.821Z,35.51
2019-03-22T11:46:43.721Z,35.68
2019-03-22T11:49:13.708Z,34.87
2019-03-22T11:51:43.482Z,35.34
2019-03-22T11:54:13.195Z,33.63
2019-03-22T11:56:42.807Z,33.18
2019-03-22T11:59:12.651Z,32.92
2019-03-22T12:01:42.449Z,32.24
2019-03-22T12:04:12.210Z,32.58
2019-03-22T12:06:42.123Z,31.51
2019-03-22T12:09:12.289Z,31.21
2019-03-22T12:11:42.235Z,31.58
2019-03-22T12:14:12.271Z,31.81
2019-03-22T12:16:42.089Z,31.58
2019-03-22T12:19:12.024Z,31.75
2019-03-22T12:21:41.989Z,31.74
2019-03-22T12:24:11.737Z,31.89
2019-03-22T12:26:41.408Z,31.32
2019-03-22T12:29:11.081Z,31.42
2019-03-22T12:31:40.724Z,31.16
2019-03-22T12:34:10.824Z,30.91
2019-03-22T12:36:40.600Z,31.08
2019-03-22T12:39:10.873Z,31.23
2019-03-22T12:41:40.715Z,31.42
2019-03-22T12:44:10.602Z,30.57
2019-03-22T12:46:40.461Z,30.79
2019-03-22T12:49:10.022Z,30.59
2019-03-22T12:51:40.171Z,29.80
2019-03-22T12:54:09.999Z,29.81
2019-03-22T12:56:39.813Z,29.54
2019-03-22T12:59:09.577Z,29.34
2019-03-22T13:01:39.202Z,29.77
2019-03-22T13:04:08.920Z,29.63
2019-03-22T13:06:38.590Z,29.03
2019-03-22T13:09:09.413Z,29.74
2019-03-22T13:11:39.088Z,29.46
2019-03-22T13:14:08.785Z,29.59
2019-03-22T13:16:38.537Z,29.15
2019-03-22T13:19:08.579Z,29.49
2019-03-22T13:21:38.226Z,29.47
2019-03-22T13:24:08.118Z,29.82
2019-03-22T13:26:37.796Z,29.43
2019-03-22T13:29:07.417Z,29.26
2019-03-22T13:31:37.228Z,28.88
2019-03-22T13:34:06.864Z,29.07
2019-03-22T13:36:36.500Z,28.25
2019-03-22T13:39:08.687Z,28.37
2019-03-22T13:41:38.311Z,28.33
2019-03-22T13:44:08.129Z,27.73
2019-03-22T13:46:40.420Z,27.46
2019-03-22T13:49:10.443Z,27.39
2019-03-22T13:51:40.358Z,27.40
2019-03-22T13:54:10.016Z,27.74
2019-03-22T13:56:39.675Z,27.63
2019-03-22T13:59:09.299Z,27.02
2019-03-22T14:01:38.903Z,26.51
2019-03-22T14:04:08.790Z,27.13
2019-03-22T14:06:38.931Z,27.04
2019-03-22T14:09:09.329Z,26.46
2019-03-22T14:11:38.969Z,27.19
2019-03-22T14:14:09.319Z,27.10
2019-03-22T14:16:39.304Z,27.04
2019-03-22T14:19:09.318Z,27.15
2019-03-22T14:21:39.149Z,27.49
2019-03-22T14:24:08.793Z,27.33
2019-03-22T14:26:38.546Z,27.92
2019-03-22T14:29:08.395Z,27.92
2019-03-22T14:31:38.849Z,28.38
2019-03-22T14:34:09.063Z,28.79
2019-03-22T14:36:39.984Z,28.76
2019-03-22T14:39:10.100Z,28.81
2019-03-22T14:41:40.141Z,28.40
2019-03-22T14:44:10.224Z,27.77
2019-03-22T14:46:40.334Z,27.32
2019-03-22T14:49:11.507Z,27.43
2019-03-22T14:51:47.745Z,27.13
2019-03-22T14:54:23.461Z,27.64
2019-03-22T14:56:53.779Z,28.10
2019-03-22T14:59:23.592Z,28.25
2019-03-22T15:01:53.467Z,27.74
2019-03-22T15:04:23.217Z,27.76
2019-03-22T15:06:53.021Z,28.07
2019-03-22T15:09:22.872Z,28.17
2019-03-22T15:11:52.778Z,28.06
2019-03-22T15:14:35.738Z,28.46
2019-03-22T15:17:23.263Z,28.22
2019-03-22T15:20:15.234Z,28.03
2019-03-22T15:23:13.557Z,28.10
2019-03-22T15:26:00.772Z,28.36
2019-03-22T15:28:52.615Z,28.16
2019-03-22T15:31:41.667Z,28.70
2019-03-22T15:34:29.466Z,28.95
2019-03-22T15:37:18.192Z,28.46
2019-03-22T15:39:59.276Z,28.16
2019-03-22T15:42:28.988Z,28.48
2019-03-22T15:44:58.912Z,28.42
2019-03-22T15:47:28.845Z,28.27
2019-03-22T15:49:58.902Z,27.87
2019-03-22T15:52:29.153Z,27.66
2019-03-22T15:54:58.973Z,28.13
2019-03-22T15:57:29.002Z,28.55
2019-03-22T15:59:59.396Z,28.50
2019-03-22T16:02:29.361Z,28.07
2019-03-22T16:04:59.055Z,28.36
2019-03-22T16:07:29.309Z,27.85
2019-03-22T16:10:01.497Z,28.38
2019-03-22T16:12:31.119Z,28.22
2019-03-22T16:15:00.944Z,28.79
2019-03-22T16:17:31.070Z,28.82
2019-03-22T16:20:00.890Z,29.41
2019-03-22T16:22:30.679Z,29.16
2019-03-22T16:25:00.712Z,29.47
2019-03-22T16:27:30.879Z,29.46
2019-03-22T16:30:00.676Z,30.11
2019-03-22T16:32:30.383Z,30.79
2019-03-22T16:35:00.050Z,31.20
2019-03-22T16:37:29.858Z,31.49
2019-03-22T16:39:59.832Z,31.78
2019-03-22T16:42:29.731Z,32.03
2019-03-22T16:45:00.024Z,32.17
2019-03-22T16:47:29.994Z,32.31
2019-03-22T16:49:59.755Z,32.51
2019-03-22T16:52:29.579Z,32.91
2019-03-22T16:54:59.362Z,33.42
2019-03-22T16:57:29.680Z,34.34
2019-03-22T16:59:59.574Z,35.67
2019-03-22T17:02:29.722Z,38.62
2019-03-22T17:04:59.348Z,40.00
2019-03-22T17:07:29.154Z,41.21
2019-03-22T17:09:58.958Z,41.63
2019-03-22T17:12:28.876Z,40.89
2019-03-22T17:14:58.494Z,40.75
2019-03-22T17:17:28.124Z,40.96
2019-03-22T17:19:57.754Z,40.35
2019-03-22T17:22:27.846Z,40.72
2019-03-22T17:24:58.382Z,41.20
2019-03-22T17:27:28.223Z,40.54
2019-03-22T17:29:58.237Z,42.25
2019-03-22T17:32:28.088Z,42.07
2019-03-22T17:34:57.817Z,42.25
2019-03-22T17:37:27.648Z,42.47
2019-03-22T17:39:57.774Z,42.57
2019-03-22T17:42:27.962Z,42.74
2019-03-22T17:44:57.786Z,43.83
2019-03-22T17:47:27.915Z,45.04
2019-03-22T17:49:57.828Z,44.86
2019-03-22T17:52:27.868Z,45.41
2019-03-22T17:54:57.550Z,46.18
2019-03-22T17:57:27.871Z,46.78
2019-03-22T17:59:57.881Z,47.44
2019-03-22T18:02:27.682Z,48.61
2019-03-22T18:04:57.841Z,49.49
2019-03-22T18:07:28.011Z,50.23
2019-03-22T18:09:57.866Z,50.79
2019-03-22T18:12:27.649Z,50.73
2019-03-22T18:14:57.306Z,50.63
2019-03-22T18:17:27.000Z,51.34
2019-03-22T18:19:57.098Z,52.56
2019-03-22T18:22:27.042Z,53.20
2019-03-22T18:24:57.076Z,53.47
2019-03-22T18:27:26.829Z,53.67
2019-03-22T18:29:56.444Z,54.89
2019-03-22T18:32:28.161Z,55.17
2019-03-22T18:34:58.315Z,55.63
2019-03-22T18:37:27.905Z,57.15
2019-03-22T18:39:57.639Z,57.27
2019-03-22T18:42:27.783Z,57.86
2019-03-22T18:45:02.636Z,58.35
2019-03-22T18:47:32.740Z,58.75
2019-03-22T18:50:02.459Z,59.20
2019-03-22T18:52:32.299Z,59.75
2019-03-22T18:55:02.020Z,60.09
2019-03-22T18:57:31.996Z,60.62
2019-03-22T19:00:02.132Z,60.56
2019-03-22T19:02:32.418Z,60.79
2019-03-22T19:05:02.087Z,61.43
2019-03-22T19:07:31.790Z,61.61
2019-03-22T19:10:02.024Z,61.99
2019-03-22T19:12:32.233Z,62.43
2019-03-22T19:15:02.370Z,62.63
2019-03-22T19:17:32.740Z,63.27
2019-03-22T19:20:02.570Z,63.96
2019-03-22T19:22:32.948Z,63.82
2019-03-22T19:25:02.626Z,66.25
2019-03-22T19:27:33.004Z,63.88
2019-03-22T19:30:03.039Z,63.69
2019-03-22T19:32:33.796Z,64.24
2019-03-22T19:35:04.066Z,64.41
2019-03-22T19:37:34.074Z,65.51
2019-03-22T19:40:03.973Z,66.02
2019-03-22T19:42:34.614Z,66.11
2019-03-22T19:45:04.747Z,66.92
2019-03-22T19:47:34.850Z,67.11
2019-03-22T19:50:05.222Z,66.88
2019-03-22T19:52:35.122Z,67.11
2019-03-22T19:55:05.833Z,67.40
2019-03-22T19:57:35.978Z,67.81
2019-03-22T20:00:06.865Z,67.86
2019-03-22T20:02:37.633Z,68.43
2019-03-22T20:05:08.254Z,68.75
2019-03-22T20:07:38.531Z,68.87
2019-03-22T20:10:09.684Z,69.20
2019-03-22T20:12:39.624Z,69.70
2019-03-22T20:15:09.948Z,69.93
2019-03-22T20:17:40.315Z,70.34
2019-03-22T20:20:10.459Z,70.28
2019-03-22T20:22:40.608Z,70.32
2019-03-22T20:25:10.723Z,70.82
2019-03-22T20:27:40.534Z,70.77
2019-03-22T20:30:10.760Z,71.11
2019-03-22T20:32:40.428Z,71.71
2019-03-22T20:35:16.414Z,71.84
2019-03-22T20:37:41.831Z,72.69
2019-03-22T20:40:11.666Z,72.83
2019-03-22T20:42:41.335Z,73.22
2019-03-22T20:45:11.305Z,73.22
2019-03-22T20:47:41.248Z,73.59
2019-03-22T20:50:11.184Z,73.62
2019-03-22T20:52:41.042Z,73.98
2019-03-22T20:55:11.402Z,74.21
2019-03-22T20:57:41.015Z,74.38
2019-03-22T21:00:11.838Z,74.70
2019-03-22T21:02:41.536Z,75.62
2019-03-22T21:05:12.412Z,75.56
2019-03-22T21:07:42.220Z,75.54
2019-03-22T21:10:12.337Z,75.76
2019-03-22T21:12:42.629Z,75.96
2019-03-22T21:15:23.504Z,76.11
2019-03-22T21:17:44.197Z,76.21
2019-03-22T21:20:14.102Z,77.13
2019-03-22T21:22:44.311Z,76.99
2019-03-22T21:25:14.163Z,77.37
2019-03-22T21:27:43.982Z,77.86
2019-03-22T21:30:14.539Z,78.53
2019-03-22T21:32:45.804Z,79.12
2019-03-22T21:35:22.531Z,79.20
2019-03-22T21:37:47.114Z,79.21
2019-03-22T21:40:17.157Z,79.81
2019-03-22T21:42:46.967Z,80.01
2019-03-22T21:45:16.766Z,80.13
2019-03-22T21:47:46.831Z,80.66
2019-03-22T21:50:16.597Z,80.41
2019-03-22T21:52:46.413Z,80.59
2019-03-22T21:55:16.192Z,80.69
2019-03-22T21:57:45.806Z,80.64
2019-03-22T22:00:15.564Z,80.92
2019-03-22T22:02:45.250Z,81.14
2019-03-22T22:05:15.296Z,81.61
2019-03-22T22:07:44.982Z,81.91
2019-03-22T22:10:14.703Z,82.39
2019-03-22T22:12:44.417Z,82.43
2019-03-22T22:15:14.636Z,82.99
2019-03-22T22:17:44.770Z,82.84
2019-03-22T22:20:15.090Z,83.13
2019-03-22T22:22:45.180Z,84.06
2019-03-22T22:25:15.116Z,83.83
2019-03-22T22:27:45.246Z,82.43
2019-03-22T22:30:15.138Z,82.53
2019-03-22T22:32:45.008Z,81.94
2019-03-22T22:35:14.806Z,81.30
2019-03-22T22:37:44.910Z,81.40
2019-03-22T22:40:14.640Z,81.31
2019-03-22T22:42:44.566Z,81.70
2019-03-22T22:45:14.316Z,81.91
2019-03-22T22:47:43.943Z,82.09
2019-03-22T22:50:13.799Z,82.04
2019-03-22T22:52:43.580Z,82.08
2019-03-22T22:55:13.319Z,82.82
2019-03-22T22:57:43.055Z,83.26
2019-03-22T23:00:15.985Z,83.45
2019-03-22T23:02:46.671Z,83.27
2019-03-22T23:05:16.655Z,82.73
2019-03-22T23:07:46.923Z,82.79
2019-03-22T23:10:16.553Z,82.84
2019-03-22T23:12:46.296Z,82.80
2019-03-22T23:15:16.124Z,83.36
2019-03-22T23:17:45.762Z,82.47
2019-03-22T23:20:15.466Z,82.77
2019-03-22T23:22:45.420Z,82.97
2019-03-22T23:25:15.355Z,82.89
2019-03-22T23:27:45.044Z,82.97
2019-03-22T23:30:14.726Z,83.25
2019-03-22T23:32:44.811Z,83.33
2019-03-22T23:35:14.611Z,83.91
2019-03-22T23:37:44.319Z,83.96
2019-03-22T23:40:14.080Z,84.22
2019-03-22T23:42:43.722Z,84.38
2019-03-22T23:45:13.367Z,84.61
2019-03-22T23:47:43.167Z,84.58
2019-03-22T23:50:12.991Z,85.08
2019-03-22T23:52:42.608Z,84.85
2019-03-22T23:55:12.630Z,84.93
2019-03-22T23:57:42.969Z,85.08
